sensor_id;sensor_type;location;lat;lon;timestamp;temperature;humidity
40676;DHT22;26359;48.750;9.314;2023-06-10T00:01:24;19.10;99.90
40676;DHT22;26359;48.750;9.314;2023-06-10T00:03:50;19.00;99.90
40676;DHT22;26359;48.750;9.314;2023-06-10T00:06:17;19.00;99.90
40676;DHT22;26359;48.750;9.314;2023-06-10T00:08:42;18.90;99.90
40676;DHT22;26359;48.750;9.314;2023-06-10T00:11:08;18.90;99.90
40676;DHT22;26359;48.750;9.314;2023-06-10T00:13:33;18.90;99.90
40676;DHT22;26359;48.750;9.314;2023-06-10T00:15:59;18.90;99.90
40676;DHT22;26359;48.750;9.314;2023-06-10T00:18:24;19.00;99.90
40676;DHT22;26359;48.750;9.314;2023-06-10T00:20:52;19.00;99.90
40676;DHT22;26359;48.750;9.314;2023-06-10T00:23:20;18.90;99.90
40676;DHT22;26359;48.750;9.314;2023-06-10T00:25:46;18.90;99.90
40676;DHT22;26359;48.750;9.314;2023-06-10T00:28:11;18.90;99.90
40676;DHT22;26359;48.750;9.314;2023-06-10T00:30:37;18.90;99.90
40676;DHT22;26359;48.750;9.314;2023-06-10T00:33:02;18.90;99.90
40676;DHT22;26359;48.750;9.314;2023-06-10T00:35:28;18.90;99.90
40676;DHT22;26359;48.750;9.314;2023-06-10T00:37:54;18.90;99.90
40676;DHT22;26359;48.750;9.314;2023-06-10T00:40:19;18.80;99.90
40676;DHT22;26359;48.750;9.314;2023-06-10T00:42:45;18.80;99.90
40676;DHT22;26359;48.750;9.314;2023-06-10T00:45:10;18.80;99.90
40676;DHT22;26359;48.750;9.314;2023-06-10T00:47:36;18.90;99.90
40676;DHT22;26359;48.750;9.314;2023-06-10T00:50:02;18.80;99.90
40676;DHT22;26359;48.750;9.314;2023-06-10T00:52:29;18.70;99.90
40676;DHT22;26359;48.750;9.314;2023-06-10T00:54:55;18.60;99.90
40676;DHT22;26359;48.750;9.314;2023-06-10T00:57:21;18.60;99.90
40676;DHT22;26359;48.750;9.314;2023-06-10T00:59:48;18.50;99.90
40676;DHT22;26359;48.750;9.314;2023-06-10T01:02:14;18.60;99.90
40676;DHT22;26359;48.750;9.314;2023-06-10T01:04:40;18.60;99.90
40676;DHT22;26359;48.750;9.314;2023-06-10T01:12:19;18.60;99.90
40676;DHT22;26359;48.750;9.314;2023-06-10T01:14:47;18.60;99.90
40676;DHT22;26359;48.750;9.314;2023-06-10T01:17:14;18.60;99.90
40676;DHT22;26359;48.750;9.314;2023-06-10T01:19:41;18.50;99.90
40676;DHT22;26359;48.750;9.314;2023-06-10T01:22:09;18.40;99.90
40676;DHT22;26359;48.750;9.314;2023-06-10T01:24:36;18.40;99.90
40676;DHT22;26359;48.750;9.314;2023-06-10T01:27:05;18.40;99.90
40676;DHT22;26359;48.750;9.314;2023-06-10T01:29:39;18.40;99.90
40676;DHT22;26359;48.750;9.314;2023-06-10T01:32:32;18.40;99.90
40676;DHT22;26359;48.750;9.314;2023-06-10T01:34:59;18.40;99.90
40676;DHT22;26359;48.750;9.314;2023-06-10T01:37:26;18.40;99.90
40676;DHT22;26359;48.750;9.314;2023-06-10T01:39:57;18.30;99.90
40676;DHT22;26359;48.750;9.314;2023-06-10T01:42:23;18.30;99.90
40676;DHT22;26359;48.750;9.314;2023-06-10T01:44:49;18.30;99.90
40676;DHT22;26359;48.750;9.314;2023-06-10T01:47:15;18.20;99.90
40676;DHT22;26359;48.750;9.314;2023-06-10T01:49:42;18.20;99.90
40676;DHT22;26359;48.750;9.314;2023-06-10T01:52:07;18.20;99.90
40676;DHT22;26359;48.750;9.314;2023-06-10T01:54:33;18.20;99.90
40676;DHT22;26359;48.750;9.314;2023-06-10T01:57:00;18.10;99.90
40676;DHT22;26359;48.750;9.314;2023-06-10T01:59:26;18.10;99.90
40676;DHT22;26359;48.750;9.314;2023-06-10T02:01:51;18.10;99.90
40676;DHT22;26359;48.750;9.314;2023-06-10T02:04:17;18.00;99.90
40676;DHT22;26359;48.750;9.314;2023-06-10T02:06:43;18.00;99.90
40676;DHT22;26359;48.750;9.314;2023-06-10T02:09:08;18.00;99.90
40676;DHT22;26359;48.750;9.314;2023-06-10T02:11:34;17.90;99.90
40676;DHT22;26359;48.750;9.314;2023-06-10T02:13:59;18.00;99.90
40676;DHT22;26359;48.750;9.314;2023-06-10T02:16:25;17.90;99.90
40676;DHT22;26359;48.750;9.314;2023-06-10T02:18:52;17.80;99.90
40676;DHT22;26359;48.750;9.314;2023-06-10T02:21:17;17.90;99.90
40676;DHT22;26359;48.750;9.314;2023-06-10T02:23:43;17.80;99.90
40676;DHT22;26359;48.750;9.314;2023-06-10T02:26:08;17.80;99.90
40676;DHT22;26359;48.750;9.314;2023-06-10T02:28:34;17.80;99.90
40676;DHT22;26359;48.750;9.314;2023-06-10T02:30:59;17.80;99.90
40676;DHT22;26359;48.750;9.314;2023-06-10T02:33:25;17.70;99.90
40676;DHT22;26359;48.750;9.314;2023-06-10T02:35:52;17.60;99.90
40676;DHT22;26359;48.750;9.314;2023-06-10T02:38:18;17.60;99.90
40676;DHT22;26359;48.750;9.314;2023-06-10T02:40:43;17.70;99.90
40676;DHT22;26359;48.750;9.314;2023-06-10T02:43:09;17.70;99.90
40676;DHT22;26359;48.750;9.314;2023-06-10T02:45:35;17.70;99.90
40676;DHT22;26359;48.750;9.314;2023-06-10T02:48:00;17.70;99.90
40676;DHT22;26359;48.750;9.314;2023-06-10T02:50:26;17.70;99.90
40676;DHT22;26359;48.750;9.314;2023-06-10T02:52:51;17.80;99.90
40676;DHT22;26359;48.750;9.314;2023-06-10T02:55:17;17.70;99.90
40676;DHT22;26359;48.750;9.314;2023-06-10T02:57:42;17.70;99.90
40676;DHT22;26359;48.750;9.314;2023-06-10T03:00:08;17.70;99.90
40676;DHT22;26359;48.750;9.314;2023-06-10T03:02:37;17.60;99.90
40676;DHT22;26359;48.750;9.314;2023-06-10T03:05:04;17.60;99.90
40676;DHT22;26359;48.750;9.314;2023-06-10T03:07:30;17.60;99.90
40676;DHT22;26359;48.750;9.314;2023-06-10T03:09:56;17.60;99.90
40676;DHT22;26359;48.750;9.314;2023-06-10T03:12:21;17.60;99.90
40676;DHT22;26359;48.750;9.314;2023-06-10T03:14:47;17.60;99.90
40676;DHT22;26359;48.750;9.314;2023-06-10T03:17:13;17.60;99.90
40676;DHT22;26359;48.750;9.314;2023-06-10T03:19:38;17.60;99.90
40676;DHT22;26359;48.750;9.314;2023-06-10T03:22:15;17.60;99.90
40676;DHT22;26359;48.750;9.314;2023-06-10T03:24:41;17.60;99.90
40676;DHT22;26359;48.750;9.314;2023-06-10T03:27:10;17.60;99.90
40676;DHT22;26359;48.750;9.314;2023-06-10T03:29:36;17.50;99.90
40676;DHT22;26359;48.750;9.314;2023-06-10T03:32:02;17.50;99.90
40676;DHT22;26359;48.750;9.314;2023-06-10T03:34:28;17.40;99.90
40676;DHT22;26359;48.750;9.314;2023-06-10T03:36:55;17.30;99.90
40676;DHT22;26359;48.750;9.314;2023-06-10T03:39:21;17.30;99.90
40676;DHT22;26359;48.750;9.314;2023-06-10T03:41:46;17.20;99.90
40676;DHT22;26359;48.750;9.314;2023-06-10T03:44:12;17.10;99.90
40676;DHT22;26359;48.750;9.314;2023-06-10T03:46:38;17.10;99.90
40676;DHT22;26359;48.750;9.314;2023-06-10T03:49:03;17.10;99.90
40676;DHT22;26359;48.750;9.314;2023-06-10T03:51:29;17.10;99.90
40676;DHT22;26359;48.750;9.314;2023-06-10T03:53:55;17.10;99.90
40676;DHT22;26359;48.750;9.314;2023-06-10T03:56:20;17.10;99.90
40676;DHT22;26359;48.750;9.314;2023-06-10T03:58:46;17.00;99.90
40676;DHT22;26359;48.750;9.314;2023-06-10T04:01:11;16.90;99.90
40676;DHT22;26359;48.750;9.314;2023-06-10T04:03:38;16.90;99.90
40676;DHT22;26359;48.750;9.314;2023-06-10T04:06:04;16.90;99.90
40676;DHT22;26359;48.750;9.314;2023-06-10T04:08:30;16.90;99.90
40676;DHT22;26359;48.750;9.314;2023-06-10T04:10:56;17.00;99.90
40676;DHT22;26359;48.750;9.314;2023-06-10T04:13:23;17.00;99.90
40676;DHT22;26359;48.750;9.314;2023-06-10T04:15:48;17.10;99.90
40676;DHT22;26359;48.750;9.314;2023-06-10T04:18:14;17.10;99.90
40676;DHT22;26359;48.750;9.314;2023-06-10T04:20:40;17.20;99.90
40676;DHT22;26359;48.750;9.314;2023-06-10T04:23:05;17.20;99.90
40676;DHT22;26359;48.750;9.314;2023-06-10T04:25:31;17.10;99.90
40676;DHT22;26359;48.750;9.314;2023-06-10T04:27:56;17.10;99.90
40676;DHT22;26359;48.750;9.314;2023-06-10T04:30:22;17.00;99.90
40676;DHT22;26359;48.750;9.314;2023-06-10T04:32:48;17.10;99.90
40676;DHT22;26359;48.750;9.314;2023-06-10T04:35:15;17.10;99.90
40676;DHT22;26359;48.750;9.314;2023-06-10T04:37:40;17.10;99.90
40676;DHT22;26359;48.750;9.314;2023-06-10T04:40:07;17.10;99.90
40676;DHT22;26359;48.750;9.314;2023-06-10T04:42:33;17.10;99.90
40676;DHT22;26359;48.750;9.314;2023-06-10T04:44:59;17.00;99.90
40676;DHT22;26359;48.750;9.314;2023-06-10T04:47:25;17.00;99.90
40676;DHT22;26359;48.750;9.314;2023-06-10T04:49:51;17.00;99.90
40676;DHT22;26359;48.750;9.314;2023-06-10T04:52:16;17.00;99.90
40676;DHT22;26359;48.750;9.314;2023-06-10T04:54:43;17.00;99.90
40676;DHT22;26359;48.750;9.314;2023-06-10T04:57:08;17.00;99.90
40676;DHT22;26359;48.750;9.314;2023-06-10T04:59:34;17.00;99.90
40676;DHT22;26359;48.750;9.314;2023-06-10T05:02:05;17.00;99.90
40676;DHT22;26359;48.750;9.314;2023-06-10T05:04:31;17.10;99.90
40676;DHT22;26359;48.750;9.314;2023-06-10T05:06:56;17.20;99.90
40676;DHT22;26359;48.750;9.314;2023-06-10T05:09:22;17.30;99.90
40676;DHT22;26359;48.750;9.314;2023-06-10T05:11:47;17.30;99.90
40676;DHT22;26359;48.750;9.314;2023-06-10T05:14:13;17.40;99.90
40676;DHT22;26359;48.750;9.314;2023-06-10T05:16:41;17.40;99.90
40676;DHT22;26359;48.750;9.314;2023-06-10T05:19:08;17.40;99.90
40676;DHT22;26359;48.750;9.314;2023-06-10T05:21:34;17.40;99.90
40676;DHT22;26359;48.750;9.314;2023-06-10T05:23:59;17.40;99.90
40676;DHT22;26359;48.750;9.314;2023-06-10T05:26:26;17.40;99.90
40676;DHT22;26359;48.750;9.314;2023-06-10T05:28:51;17.50;99.90
40676;DHT22;26359;48.750;9.314;2023-06-10T05:31:18;17.50;99.90
40676;DHT22;26359;48.750;9.314;2023-06-10T05:33:43;17.60;99.90
40676;DHT22;26359;48.750;9.314;2023-06-10T05:36:09;17.60;99.90
40676;DHT22;26359;48.750;9.314;2023-06-10T05:38:34;17.60;99.90
40676;DHT22;26359;48.750;9.314;2023-06-10T05:41:00;17.70;99.90
40676;DHT22;26359;48.750;9.314;2023-06-10T05:43:25;17.70;99.90
40676;DHT22;26359;48.750;9.314;2023-06-10T05:45:51;17.70;99.90
40676;DHT22;26359;48.750;9.314;2023-06-10T05:48:16;17.80;99.90
40676;DHT22;26359;48.750;9.314;2023-06-10T05:50:42;17.80;99.90
40676;DHT22;26359;48.750;9.314;2023-06-10T05:53:10;18.00;99.90
40676;DHT22;26359;48.750;9.314;2023-06-10T05:55:44;18.00;99.90
40676;DHT22;26359;48.750;9.314;2023-06-10T05:58:09;18.10;99.90
40676;DHT22;26359;48.750;9.314;2023-06-10T06:00:35;18.20;99.90
40676;DHT22;26359;48.750;9.314;2023-06-10T06:03:01;18.20;99.90
40676;DHT22;26359;48.750;9.314;2023-06-10T06:05:26;18.30;99.90
40676;DHT22;26359;48.750;9.314;2023-06-10T06:07:52;18.40;99.90
40676;DHT22;26359;48.750;9.314;2023-06-10T06:10:18;18.50;99.90
40676;DHT22;26359;48.750;9.314;2023-06-10T06:12:44;18.50;99.90
40676;DHT22;26359;48.750;9.314;2023-06-10T06:15:10;18.50;99.90
40676;DHT22;26359;48.750;9.314;2023-06-10T06:17:36;18.60;99.90
40676;DHT22;26359;48.750;9.314;2023-06-10T06:20:03;18.60;99.90
40676;DHT22;26359;48.750;9.314;2023-06-10T06:22:28;18.70;99.90
40676;DHT22;26359;48.750;9.314;2023-06-10T06:24:54;18.80;99.90
40676;DHT22;26359;48.750;9.314;2023-06-10T06:27:19;18.80;99.90
40676;DHT22;26359;48.750;9.314;2023-06-10T06:29:46;18.90;99.90
40676;DHT22;26359;48.750;9.314;2023-06-10T06:32:12;18.90;99.90
40676;DHT22;26359;48.750;9.314;2023-06-10T06:34:37;19.10;99.90
40676;DHT22;26359;48.750;9.314;2023-06-10T06:37:03;19.10;99.90
40676;DHT22;26359;48.750;9.314;2023-06-10T06:39:28;19.20;99.90
40676;DHT22;26359;48.750;9.314;2023-06-10T06:41:54;19.30;99.90
40676;DHT22;26359;48.750;9.314;2023-06-10T06:44:20;19.30;99.90
40676;DHT22;26359;48.750;9.314;2023-06-10T06:46:45;19.40;99.90
40676;DHT22;26359;48.750;9.314;2023-06-10T06:49:11;19.50;99.90
40676;DHT22;26359;48.750;9.314;2023-06-10T06:51:36;19.50;99.90
40676;DHT22;26359;48.750;9.314;2023-06-10T06:54:02;19.70;99.90
40676;DHT22;26359;48.750;9.314;2023-06-10T06:56:28;19.80;99.90
40676;DHT22;26359;48.750;9.314;2023-06-10T06:58:53;19.70;99.90
40676;DHT22;26359;48.750;9.314;2023-06-10T07:01:19;19.90;99.90
40676;DHT22;26359;48.750;9.314;2023-06-10T07:03:45;19.90;99.90
40676;DHT22;26359;48.750;9.314;2023-06-10T07:06:10;19.90;99.90
40676;DHT22;26359;48.750;9.314;2023-06-10T07:08:36;20.00;99.90
40676;DHT22;26359;48.750;9.314;2023-06-10T07:11:01;20.00;99.90
40676;DHT22;26359;48.750;9.314;2023-06-10T07:13:27;20.10;99.90
40676;DHT22;26359;48.750;9.314;2023-06-10T07:15:52;20.20;99.90
40676;DHT22;26359;48.750;9.314;2023-06-10T07:18:18;20.30;99.90
40676;DHT22;26359;48.750;9.314;2023-06-10T07:20:44;20.30;99.90
40676;DHT22;26359;48.750;9.314;2023-06-10T07:23:10;20.30;99.90
40676;DHT22;26359;48.750;9.314;2023-06-10T07:25:35;20.40;99.90
40676;DHT22;26359;48.750;9.314;2023-06-10T07:28:01;20.50;99.90
40676;DHT22;26359;48.750;9.314;2023-06-10T07:30:27;20.50;99.90
40676;DHT22;26359;48.750;9.314;2023-06-10T07:32:53;20.60;99.90
40676;DHT22;26359;48.750;9.314;2023-06-10T07:35:19;20.60;99.90
40676;DHT22;26359;48.750;9.314;2023-06-10T07:37:44;20.70;99.90
40676;DHT22;26359;48.750;9.314;2023-06-10T07:40:11;20.70;99.90
40676;DHT22;26359;48.750;9.314;2023-06-10T07:42:36;20.80;99.90
40676;DHT22;26359;48.750;9.314;2023-06-10T07:45:03;20.90;99.90
40676;DHT22;26359;48.750;9.314;2023-06-10T07:47:29;21.00;99.90
40676;DHT22;26359;48.750;9.314;2023-06-10T07:49:55;21.00;99.90
40676;DHT22;26359;48.750;9.314;2023-06-10T07:52:21;21.10;99.90
40676;DHT22;26359;48.750;9.314;2023-06-10T07:54:46;21.10;99.90
40676;DHT22;26359;48.750;9.314;2023-06-10T07:57:12;21.20;99.90
40676;DHT22;26359;48.750;9.314;2023-06-10T07:59:38;21.20;99.90
40676;DHT22;26359;48.750;9.314;2023-06-10T08:02:04;21.30;99.90
40676;DHT22;26359;48.750;9.314;2023-06-10T08:04:29;21.40;99.90
40676;DHT22;26359;48.750;9.314;2023-06-10T08:06:56;21.50;99.90
40676;DHT22;26359;48.750;9.314;2023-06-10T08:09:22;21.70;99.90
40676;DHT22;26359;48.750;9.314;2023-06-10T08:11:48;21.70;99.90
40676;DHT22;26359;48.750;9.314;2023-06-10T08:14:14;21.70;99.90
40676;DHT22;26359;48.750;9.314;2023-06-10T08:16:40;21.80;99.90
40676;DHT22;26359;48.750;9.314;2023-06-10T08:19:06;21.90;99.90
40676;DHT22;26359;48.750;9.314;2023-06-10T08:21:34;21.80;99.90
40676;DHT22;26359;48.750;9.314;2023-06-10T08:24:00;21.90;99.90
40676;DHT22;26359;48.750;9.314;2023-06-10T08:26:25;21.90;99.90
40676;DHT22;26359;48.750;9.314;2023-06-10T08:28:51;22.00;99.90
40676;DHT22;26359;48.750;9.314;2023-06-10T08:31:17;22.10;99.90
40676;DHT22;26359;48.750;9.314;2023-06-10T08:33:42;22.20;99.90
40676;DHT22;26359;48.750;9.314;2023-06-10T08:36:08;22.30;99.90
40676;DHT22;26359;48.750;9.314;2023-06-10T08:38:33;22.50;99.90
40676;DHT22;26359;48.750;9.314;2023-06-10T08:41:00;22.60;99.90
40676;DHT22;26359;48.750;9.314;2023-06-10T08:43:42;22.60;99.90
40676;DHT22;26359;48.750;9.314;2023-06-10T08:46:09;22.80;99.90
40676;DHT22;26359;48.750;9.314;2023-06-10T08:48:42;23.10;99.90
40676;DHT22;26359;48.750;9.314;2023-06-10T08:51:10;23.20;99.90
40676;DHT22;26359;48.750;9.314;2023-06-10T08:53:37;23.30;99.90
40676;DHT22;26359;48.750;9.314;2023-06-10T08:56:04;23.30;99.90
40676;DHT22;26359;48.750;9.314;2023-06-10T08:58:32;23.50;99.90
40676;DHT22;26359;48.750;9.314;2023-06-10T09:00:59;23.50;99.90
40676;DHT22;26359;48.750;9.314;2023-06-10T09:03:25;23.40;99.90
40676;DHT22;26359;48.750;9.314;2023-06-10T09:05:51;23.60;99.90
40676;DHT22;26359;48.750;9.314;2023-06-10T09:08:17;23.70;99.90
40676;DHT22;26359;48.750;9.314;2023-06-10T09:10:42;23.90;99.90
40676;DHT22;26359;48.750;9.314;2023-06-10T09:13:08;24.00;99.90
40676;DHT22;26359;48.750;9.314;2023-06-10T09:15:33;24.20;99.90
40676;DHT22;26359;48.750;9.314;2023-06-10T09:17:59;24.40;99.90
40676;DHT22;26359;48.750;9.314;2023-06-10T09:20:25;24.30;99.90
40676;DHT22;26359;48.750;9.314;2023-06-10T09:22:51;24.40;99.90
40676;DHT22;26359;48.750;9.314;2023-06-10T09:25:16;24.40;99.90
40676;DHT22;26359;48.750;9.314;2023-06-10T09:27:50;24.50;99.90
40676;DHT22;26359;48.750;9.314;2023-06-10T09:30:32;24.60;99.90
40676;DHT22;26359;48.750;9.314;2023-06-10T09:33:01;24.50;99.90
40676;DHT22;26359;48.750;9.314;2023-06-10T09:35:28;24.50;99.90
40676;DHT22;26359;48.750;9.314;2023-06-10T09:37:59;24.40;99.90
40676;DHT22;26359;48.750;9.314;2023-06-10T09:40:25;24.60;99.90
40676;DHT22;26359;48.750;9.314;2023-06-10T09:42:59;24.70;99.90
40676;DHT22;26359;48.750;9.314;2023-06-10T09:45:32;24.70;99.90
40676;DHT22;26359;48.750;9.314;2023-06-10T09:47:57;24.80;99.90
40676;DHT22;26359;48.750;9.314;2023-06-10T09:50:23;24.90;99.90
40676;DHT22;26359;48.750;9.314;2023-06-10T09:52:50;25.00;99.90
40676;DHT22;26359;48.750;9.314;2023-06-10T09:55:16;24.90;99.90
40676;DHT22;26359;48.750;9.314;2023-06-10T09:57:42;24.90;99.90
40676;DHT22;26359;48.750;9.314;2023-06-10T10:00:11;24.80;99.90
40676;DHT22;26359;48.750;9.314;2023-06-10T10:02:45;25.00;99.90
40676;DHT22;26359;48.750;9.314;2023-06-10T10:05:15;25.20;99.90
40676;DHT22;26359;48.750;9.314;2023-06-10T10:07:42;25.40;99.90
40676;DHT22;26359;48.750;9.314;2023-06-10T10:10:08;25.60;99.90
40676;DHT22;26359;48.750;9.314;2023-06-10T10:12:36;25.80;99.90
40676;DHT22;26359;48.750;9.314;2023-06-10T10:15:02;25.80;99.90
40676;DHT22;26359;48.750;9.314;2023-06-10T10:17:28;25.80;99.90
40676;DHT22;26359;48.750;9.314;2023-06-10T10:19:58;26.00;99.90
40676;DHT22;26359;48.750;9.314;2023-06-10T10:22:27;26.00;99.90
40676;DHT22;26359;48.750;9.314;2023-06-10T10:24:56;26.30;99.90
40676;DHT22;26359;48.750;9.314;2023-06-10T10:27:44;26.10;99.90
40676;DHT22;26359;48.750;9.314;2023-06-10T10:30:14;25.90;99.90
40676;DHT22;26359;48.750;9.314;2023-06-10T10:33:09;25.90;99.90
40676;DHT22;26359;48.750;9.314;2023-06-10T10:35:33;25.90;99.50
40676;DHT22;26359;48.750;9.314;2023-06-10T10:37:59;26.00;99.90
40676;DHT22;26359;48.750;9.314;2023-06-10T10:40:26;26.20;99.90
40676;DHT22;26359;48.750;9.314;2023-06-10T10:42:56;26.30;99.80
40676;DHT22;26359;48.750;9.314;2023-06-10T10:45:22;26.30;99.20
40676;DHT22;26359;48.750;9.314;2023-06-10T10:47:52;26.40;99.80
40676;DHT22;26359;48.750;9.314;2023-06-10T10:50:19;26.50;99.30
40676;DHT22;26359;48.750;9.314;2023-06-10T10:52:58;26.70;99.90
40676;DHT22;26359;48.750;9.314;2023-06-10T10:55:25;27.10;99.90
40676;DHT22;26359;48.750;9.314;2023-06-10T11:00:29;27.40;98.10
40676;DHT22;26359;48.750;9.314;2023-06-10T11:05:37;27.30;96.70
40676;DHT22;26359;48.750;9.314;2023-06-10T11:08:04;27.00;97.40
40676;DHT22;26359;48.750;9.314;2023-06-10T11:10:32;27.20;97.80
40676;DHT22;26359;48.750;9.314;2023-06-10T11:12:58;27.40;96.60
40676;DHT22;26359;48.750;9.314;2023-06-10T11:15:26;27.50;97.10
40676;DHT22;26359;48.750;9.314;2023-06-10T11:18:15;27.50;97.30
40676;DHT22;26359;48.750;9.314;2023-06-10T11:26:12;28.20;96.40
40676;DHT22;26359;48.750;9.314;2023-06-10T11:28:39;28.60;96.60
40676;DHT22;26359;48.750;9.314;2023-06-10T11:31:04;28.90;95.60
40676;DHT22;26359;48.750;9.314;2023-06-10T11:33:31;28.90;94.50
40676;DHT22;26359;48.750;9.314;2023-06-10T11:35:56;28.90;95.80
40676;DHT22;26359;48.750;9.314;2023-06-10T11:38:23;29.00;94.70
40676;DHT22;26359;48.750;9.314;2023-06-10T11:40:49;29.20;95.40
40676;DHT22;26359;48.750;9.314;2023-06-10T11:43:17;29.40;95.50
40676;DHT22;26359;48.750;9.314;2023-06-10T11:45:42;29.30;93.80
40676;DHT22;26359;48.750;9.314;2023-06-10T11:48:09;29.20;94.30
40676;DHT22;26359;48.750;9.314;2023-06-10T11:50:35;28.80;93.90
40676;DHT22;26359;48.750;9.314;2023-06-10T11:53:00;28.50;94.40
40676;DHT22;26359;48.750;9.314;2023-06-10T11:55:43;28.00;94.70
40676;DHT22;26359;48.750;9.314;2023-06-10T11:58:16;27.90;95.40
40676;DHT22;26359;48.750;9.314;2023-06-10T12:00:50;28.30;94.70
40676;DHT22;26359;48.750;9.314;2023-06-10T12:03:16;28.70;95.20
40676;DHT22;26359;48.750;9.314;2023-06-10T12:08:21;28.80;94.20
40676;DHT22;26359;48.750;9.314;2023-06-10T12:10:47;28.80;95.30
40676;DHT22;26359;48.750;9.314;2023-06-10T12:13:12;29.00;94.20
40676;DHT22;26359;48.750;9.314;2023-06-10T12:15:38;29.20;91.90
40676;DHT22;26359;48.750;9.314;2023-06-10T12:18:04;28.90;92.00
40676;DHT22;26359;48.750;9.314;2023-06-10T12:20:31;28.50;92.10
40676;DHT22;26359;48.750;9.314;2023-06-10T12:23:01;28.40;93.20
40676;DHT22;26359;48.750;9.314;2023-06-10T12:25:33;28.20;93.10
40676;DHT22;26359;48.750;9.314;2023-06-10T12:27:59;28.10;93.50
40676;DHT22;26359;48.750;9.314;2023-06-10T12:30:26;28.10;93.60
40676;DHT22;26359;48.750;9.314;2023-06-10T12:32:52;28.50;94.60
40676;DHT22;26359;48.750;9.314;2023-06-10T12:35:20;29.10;94.00
40676;DHT22;26359;48.750;9.314;2023-06-10T12:40:31;30.10;93.10
40676;DHT22;26359;48.750;9.314;2023-06-10T12:42:58;30.40;92.60
40676;DHT22;26359;48.750;9.314;2023-06-10T12:45:30;30.80;91.50
40676;DHT22;26359;48.750;9.314;2023-06-10T12:48:07;31.00;91.40
40676;DHT22;26359;48.750;9.314;2023-06-10T12:50:38;31.10;90.90
40676;DHT22;26359;48.750;9.314;2023-06-10T12:53:05;30.80;90.40
40676;DHT22;26359;48.750;9.314;2023-06-10T12:55:31;30.50;90.30
40676;DHT22;26359;48.750;9.314;2023-06-10T12:57:58;30.10;91.30
40676;DHT22;26359;48.750;9.314;2023-06-10T13:00:23;30.10;92.10
40676;DHT22;26359;48.750;9.314;2023-06-10T13:02:52;30.40;90.90
40676;DHT22;26359;48.750;9.314;2023-06-10T13:05:18;30.70;89.60
40676;DHT22;26359;48.750;9.314;2023-06-10T13:07:44;31.00;88.90
40676;DHT22;26359;48.750;9.314;2023-06-10T13:10:10;31.30;87.00
40676;DHT22;26359;48.750;9.314;2023-06-10T13:12:36;31.50;85.40
40676;DHT22;26359;48.750;9.314;2023-06-10T13:15:02;31.50;87.50
40676;DHT22;26359;48.750;9.314;2023-06-10T13:17:28;31.60;89.60
40676;DHT22;26359;48.750;9.314;2023-06-10T13:19:53;31.60;87.80
40676;DHT22;26359;48.750;9.314;2023-06-10T13:22:19;31.10;86.00
40676;DHT22;26359;48.750;9.314;2023-06-10T13:24:45;30.90;90.10
40676;DHT22;26359;48.750;9.314;2023-06-10T13:27:12;30.80;88.00
40676;DHT22;26359;48.750;9.314;2023-06-10T13:29:39;30.80;87.80
40676;DHT22;26359;48.750;9.314;2023-06-10T13:32:05;30.50;87.00
40676;DHT22;26359;48.750;9.314;2023-06-10T13:34:31;30.20;86.80
40676;DHT22;26359;48.750;9.314;2023-06-10T13:36:56;30.00;88.10
40676;DHT22;26359;48.750;9.314;2023-06-10T13:39:22;29.80;88.50
40676;DHT22;26359;48.750;9.314;2023-06-10T13:41:48;29.60;89.50
40676;DHT22;26359;48.750;9.314;2023-06-10T13:44:13;29.90;88.70
40676;DHT22;26359;48.750;9.314;2023-06-10T13:46:39;30.30;89.20
40676;DHT22;26359;48.750;9.314;2023-06-10T13:49:04;30.90;87.90
40676;DHT22;26359;48.750;9.314;2023-06-10T13:51:30;31.40;86.10
40676;DHT22;26359;48.750;9.314;2023-06-10T13:53:55;31.50;85.00
40676;DHT22;26359;48.750;9.314;2023-06-10T13:56:21;31.10;85.70
40676;DHT22;26359;48.750;9.314;2023-06-10T13:58:46;31.30;85.10
40676;DHT22;26359;48.750;9.314;2023-06-10T14:01:12;31.20;83.20
40676;DHT22;26359;48.750;9.314;2023-06-10T14:03:37;31.30;83.80
40676;DHT22;26359;48.750;9.314;2023-06-10T14:06:03;31.70;84.40
40676;DHT22;26359;48.750;9.314;2023-06-10T14:08:29;32.10;83.40
40676;DHT22;26359;48.750;9.314;2023-06-10T14:10:55;32.50;84.20
40676;DHT22;26359;48.750;9.314;2023-06-10T14:13:20;32.40;83.00
40676;DHT22;26359;48.750;9.314;2023-06-10T14:15:46;33.10;81.50
40676;DHT22;26359;48.750;9.314;2023-06-10T14:18:11;33.70;80.30
40676;DHT22;26359;48.750;9.314;2023-06-10T14:20:37;33.30;80.70
40676;DHT22;26359;48.750;9.314;2023-06-10T14:23:02;32.90;81.80
40676;DHT22;26359;48.750;9.314;2023-06-10T14:25:28;32.40;81.60
40676;DHT22;26359;48.750;9.314;2023-06-10T14:27:54;32.00;81.80
40676;DHT22;26359;48.750;9.314;2023-06-10T14:30:19;31.50;83.70
40676;DHT22;26359;48.750;9.314;2023-06-10T14:32:45;30.90;84.40
40676;DHT22;26359;48.750;9.314;2023-06-10T14:35:10;31.20;83.90
40676;DHT22;26359;48.750;9.314;2023-06-10T14:37:36;31.30;84.30
40676;DHT22;26359;48.750;9.314;2023-06-10T14:40:05;31.00;84.20
40676;DHT22;26359;48.750;9.314;2023-06-10T14:42:31;31.30;85.10
40676;DHT22;26359;48.750;9.314;2023-06-10T14:44:57;31.90;84.40
40676;DHT22;26359;48.750;9.314;2023-06-10T14:47:23;32.10;82.40
40676;DHT22;26359;48.750;9.314;2023-06-10T14:49:49;32.30;83.20
40676;DHT22;26359;48.750;9.314;2023-06-10T14:52:15;32.70;81.80
40676;DHT22;26359;48.750;9.314;2023-06-10T14:54:41;32.90;81.10
40676;DHT22;26359;48.750;9.314;2023-06-10T14:57:06;33.20;79.40
40676;DHT22;26359;48.750;9.314;2023-06-10T14:59:33;33.50;80.20
40676;DHT22;26359;48.750;9.314;2023-06-10T15:01:59;33.80;79.30
40676;DHT22;26359;48.750;9.314;2023-06-10T15:04:26;33.90;77.50
40676;DHT22;26359;48.750;9.314;2023-06-10T15:06:52;33.90;78.50
40676;DHT22;26359;48.750;9.314;2023-06-10T15:09:17;34.00;78.40
40676;DHT22;26359;48.750;9.314;2023-06-10T15:11:43;34.00;78.60
40676;DHT22;26359;48.750;9.314;2023-06-10T15:14:08;34.60;76.00
40676;DHT22;26359;48.750;9.314;2023-06-10T15:16:34;34.60;74.60
40676;DHT22;26359;48.750;9.314;2023-06-10T15:18:59;34.40;75.50
40676;DHT22;26359;48.750;9.314;2023-06-10T15:21:25;34.40;75.70
40676;DHT22;26359;48.750;9.314;2023-06-10T15:23:50;34.70;74.90
40676;DHT22;26359;48.750;9.314;2023-06-10T15:26:16;34.70;75.70
40676;DHT22;26359;48.750;9.314;2023-06-10T15:28:42;35.20;73.70
40676;DHT22;26359;48.750;9.314;2023-06-10T15:31:07;35.50;74.00
40676;DHT22;26359;48.750;9.314;2023-06-10T15:33:33;35.70;72.90
40676;DHT22;26359;48.750;9.314;2023-06-10T15:35:58;36.00;74.30
40676;DHT22;26359;48.750;9.314;2023-06-10T15:38:24;36.30;74.10
40676;DHT22;26359;48.750;9.314;2023-06-10T15:40:50;36.60;72.30
40676;DHT22;26359;48.750;9.314;2023-06-10T15:43:15;36.80;69.40
40676;DHT22;26359;48.750;9.314;2023-06-10T15:45:41;36.70;68.50
40676;DHT22;26359;48.750;9.314;2023-06-10T15:48:06;36.20;69.50